Hauptseite
METAR-TAF:

METAR-TAF

Flughäfen :

Flughafen Stettin-Goleniów

Stettin, Polen

Breite: 53-35N, Länge: 014-54E, Höhe: 1 m

Beobachtung

Neuester Wetterbericht von vor 29 Minuten, um 15:30 UTC
Wind 4 kt aus Ost/Südost, variierte zwischen Nordost und Süd
Temperatur 27°C
Luftfeuchtigkeit 32%
Luftdruck 1025 hPa
Sichtweite 10 km oder mehr
keine Wolken unter 1500 m und keine Kumulonimbus oder Gewitterwolken

METAR: EPSC 231530Z 11004KT 050V180 CAVOK 27/09 Q1025

Zeit: 17:59 (15:59 UTC)

Prognose

Neuester Wetterbericht von vor 4 Stunden und 29 Minuten, um 11:30 UTC
Gültige Prognose vom 23 um 12 UTC bis 24 um 12 UTC
Wind 5 kt aus unterschiedlichen Richtungen
Sichtweite 10 km oder mehr
keine Wolken unter 1500 m und keine Kumulonimbus oder Gewitterwolken
Übergehend zu
vom 24 um 09 UTC bis 24 um 11 UTC
Wind 10 kt aus Ost

TAF: EPSC 231130Z 2312/2412 VRB05KT CAVOK BECMG 2409/2411 09010KT

Wetterbeobachtungen und Prognosen von mehr als 4000 Flughäfen (METAR und TAF Bericht).

Die verfügbaren Stationen werden durch gelbe und rote Markierungen auf der Karte dargestellt.

Führen Sie die Maus auf sie, um den Namen der Station zu sehen.

Darauf klicken, um die Beobachtung von Wetterbeobachtungen und Prognosen zu sehen.

Um die Karte zu ändern : klicken Sie auf den grünen Tasten mit einem schwarzen Kreuz Zum Vergrößern, auf den grünen Button mit einem Gedankenstrich zu verkleinern, oder auf die grünen Pfeile für benachbarte Karten.


METAR-TAF: